7TN4 weather

Pegasus Field
Oakland, Tennessee, United States

Public forecast

Using degrees Fahrenheit for public forecast. Weather courtesy of forecast.io.

Closest aviation weather report (METAR) to Pegasus Field

Closest report is Olive Branch Airport, 16.0 nm (29.7 km) SW. Retrieved 2019/10/24 04:35 UTC (0 seconds ago):

KOLV 240435Z AUTO 14005KT 10SM CLR 11/06 A3015 RMK A01

Closest aviation forecast (TAF) to Pegasus Field

Closest forecast is Memphis International Airport, 21.8 nm (40.4 km) WSW. Retrieved 2019-10-24 00:30 UTC (4 hours ago):

TAF KMEM 232328Z 2400/2506 18006KT P6SM FEW250 FM240100 15005KT P6SM SKC